Terminal Aerodrome Forecast
Issued by NWS

Home | Current Version | Previous Version | Text Only | Print | Product List | Glossary On
Versions: 1 2 3 4 5 6 7 8 9 10 11 12 13
000
FTUS45 KGGW 231700
TAFSDY
TAF
KSDY 231720Z 2318/2418 11014KT P6SM SCT230
     FM240000 13018G27KT P6SM VCTS SCT100CB
     FM240600 12016KT P6SM VCSH SCT160
     FM241200 13012KT P6SM SCT230
     FM241500 14007KT P6SM SCT210
      AMD LTD TO CLD VIS AND WIND=

USA.gov is the U.S. government's official web portal to all federal, state and local government web resources and services.